sensor_id;sensor_type;location;lat;lon;timestamp;P1;durP1;ratioP1;P2;durP2;ratioP2
2972;SDS011;1496;51.404;7.232;2022-08-01T00:01:56;13.07;;;11.77;;
2972;SDS011;1496;51.404;7.232;2022-08-01T00:04:21;13.07;;;11.67;;
2972;SDS011;1496;51.404;7.232;2022-08-01T00:06:47;15.07;;;13.50;;
2972;SDS011;1496;51.404;7.232;2022-08-01T00:09:12;15.53;;;13.97;;
2972;SDS011;1496;51.404;7.232;2022-08-01T00:11:38;19.53;;;17.43;;
2972;SDS011;1496;51.404;7.232;2022-08-01T00:14:04;21.40;;;19.20;;
2972;SDS011;1496;51.404;7.232;2022-08-01T00:16:30;20.17;;;18.30;;
2972;SDS011;1496;51.404;7.232;2022-08-01T00:18:56;23.07;;;20.80;;
2972;SDS011;1496;51.404;7.232;2022-08-01T00:21:21;27.50;;;24.17;;
2972;SDS011;1496;51.404;7.232;2022-08-01T00:23:47;28.80;;;25.80;;
2972;SDS011;1496;51.404;7.232;2022-08-01T00:26:13;25.93;;;23.33;;
2972;SDS011;1496;51.404;7.232;2022-08-01T00:28:40;28.70;;;24.10;;
2972;SDS011;1496;51.404;7.232;2022-08-01T00:31:06;24.57;;;21.97;;
2972;SDS011;1496;51.404;7.232;2022-08-01T00:33:32;26.83;;;23.10;;
2972;SDS011;1496;51.404;7.232;2022-08-01T00:35:58;23.87;;;21.57;;
2972;SDS011;1496;51.404;7.232;2022-08-01T00:38:24;25.00;;;22.47;;
2972;SDS011;1496;51.404;7.232;2022-08-01T00:40:50;23.40;;;21.10;;
2972;SDS011;1496;51.404;7.232;2022-08-01T00:43:15;24.43;;;21.83;;
2972;SDS011;1496;51.404;7.232;2022-08-01T00:45:41;24.27;;;21.73;;
2972;SDS011;1496;51.404;7.232;2022-08-01T00:48:07;27.43;;;21.57;;
2972;SDS011;1496;51.404;7.232;2022-08-01T00:50:33;23.27;;;20.80;;
2972;SDS011;1496;51.404;7.232;2022-08-01T00:52:59;24.97;;;20.37;;
2972;SDS011;1496;51.404;7.232;2022-08-01T00:55:26;24.43;;;20.73;;
2972;SDS011;1496;51.404;7.232;2022-08-01T00:57:52;23.43;;;20.70;;
2972;SDS011;1496;51.404;7.232;2022-08-01T01:00:19;21.57;;;18.00;;
2972;SDS011;1496;51.404;7.232;2022-08-01T01:02:45;22.60;;;18.90;;
2972;SDS011;1496;51.404;7.232;2022-08-01T01:05:10;27.60;;;19.43;;
2972;SDS011;1496;51.404;7.232;2022-08-01T01:10:03;21.10;;;19.00;;
2972;SDS011;1496;51.404;7.232;2022-08-01T01:12:44;22.93;;;18.83;;
2972;SDS011;1496;51.404;7.232;2022-08-01T01:15:18;25.07;;;20.17;;
2972;SDS011;1496;51.404;7.232;2022-08-01T01:17:57;23.93;;;19.17;;
2972;SDS011;1496;51.404;7.232;2022-08-01T01:20:27;25.33;;;18.80;;
2972;SDS011;1496;51.404;7.232;2022-08-01T01:28:27;23.63;;;19.10;;
2972;SDS011;1496;51.404;7.232;2022-08-01T01:31:00;25.70;;;19.10;;
2972;SDS011;1496;51.404;7.232;2022-08-01T01:33:29;23.10;;;17.90;;
2972;SDS011;1496;51.404;7.232;2022-08-01T01:35:59;23.33;;;19.10;;
2972;SDS011;1496;51.404;7.232;2022-08-01T01:38:32;23.90;;;18.67;;
2972;SDS011;1496;51.404;7.232;2022-08-01T01:41:02;22.67;;;18.57;;
2972;SDS011;1496;51.404;7.232;2022-08-01T01:43:29;24.00;;;18.80;;
2972;SDS011;1496;51.404;7.232;2022-08-01T01:45:56;23.40;;;18.07;;
2972;SDS011;1496;51.404;7.232;2022-08-01T01:48:22;21.70;;;18.90;;
2972;SDS011;1496;51.404;7.232;2022-08-01T01:50:52;24.00;;;19.07;;
2972;SDS011;1496;51.404;7.232;2022-08-01T01:53:20;24.83;;;19.97;;
2972;SDS011;1496;51.404;7.232;2022-08-01T01:55:48;21.40;;;18.80;;
2972;SDS011;1496;51.404;7.232;2022-08-01T01:58:17;22.37;;;19.13;;
2972;SDS011;1496;51.404;7.232;2022-08-01T02:00:45;26.90;;;18.87;;
2972;SDS011;1496;51.404;7.232;2022-08-01T02:03:13;26.47;;;19.37;;
2972;SDS011;1496;51.404;7.232;2022-08-01T02:05:41;25.20;;;18.40;;
2972;SDS011;1496;51.404;7.232;2022-08-01T02:08:07;30.30;;;21.67;;
2972;SDS011;1496;51.404;7.232;2022-08-01T02:10:36;25.17;;;18.80;;
2972;SDS011;1496;51.404;7.232;2022-08-01T02:13:03;27.77;;;20.13;;
2972;SDS011;1496;51.404;7.232;2022-08-01T02:15:31;26.43;;;19.63;;
2972;SDS011;1496;51.404;7.232;2022-08-01T02:17:59;27.90;;;19.67;;
2972;SDS011;1496;51.404;7.232;2022-08-01T02:20:28;29.00;;;19.80;;
2972;SDS011;1496;51.404;7.232;2022-08-01T02:23:06;33.80;;;19.20;;
2972;SDS011;1496;51.404;7.232;2022-08-01T02:25:38;27.70;;;20.13;;
2972;SDS011;1496;51.404;7.232;2022-08-01T02:28:13;26.83;;;19.77;;
2972;SDS011;1496;51.404;7.232;2022-08-01T02:30:44;23.40;;;20.03;;
2972;SDS011;1496;51.404;7.232;2022-08-01T02:33:20;25.90;;;20.23;;
2972;SDS011;1496;51.404;7.232;2022-08-01T02:35:50;25.27;;;20.40;;
2972;SDS011;1496;51.404;7.232;2022-08-01T02:38:18;28.63;;;22.53;;
2972;SDS011;1496;51.404;7.232;2022-08-01T02:40:47;26.30;;;21.30;;
2972;SDS011;1496;51.404;7.232;2022-08-01T02:43:18;39.50;;;22.60;;
2972;SDS011;1496;51.404;7.232;2022-08-01T02:45:47;25.07;;;21.30;;
2972;SDS011;1496;51.404;7.232;2022-08-01T02:48:17;26.97;;;21.40;;
2972;SDS011;1496;51.404;7.232;2022-08-01T02:50:45;33.80;;;22.60;;
2972;SDS011;1496;51.404;7.232;2022-08-01T02:53:13;30.90;;;22.30;;
2972;SDS011;1496;51.404;7.232;2022-08-01T02:55:42;35.67;;;23.00;;
2972;SDS011;1496;51.404;7.232;2022-08-01T02:58:10;26.20;;;22.23;;
2972;SDS011;1496;51.404;7.232;2022-08-01T03:00:39;31.97;;;25.33;;
2972;SDS011;1496;51.404;7.232;2022-08-01T03:03:08;32.33;;;25.57;;
2972;SDS011;1496;51.404;7.232;2022-08-01T03:05:35;32.50;;;25.83;;
2972;SDS011;1496;51.404;7.232;2022-08-01T03:08:02;36.40;;;25.90;;
2972;SDS011;1496;51.404;7.232;2022-08-01T03:10:30;32.20;;;25.27;;
2972;SDS011;1496;51.404;7.232;2022-08-01T03:12:58;37.60;;;27.80;;
2972;SDS011;1496;51.404;7.232;2022-08-01T03:15:27;38.83;;;27.50;;
2972;SDS011;1496;51.404;7.232;2022-08-01T03:17:56;32.00;;;24.93;;
2972;SDS011;1496;51.404;7.232;2022-08-01T03:20:24;35.93;;;26.07;;
2972;SDS011;1496;51.404;7.232;2022-08-01T03:22:52;30.60;;;26.87;;
2972;SDS011;1496;51.404;7.232;2022-08-01T03:25:18;37.53;;;27.50;;
2972;SDS011;1496;51.404;7.232;2022-08-01T03:27:47;32.23;;;25.50;;
2972;SDS011;1496;51.404;7.232;2022-08-01T03:30:18;42.03;;;26.27;;
2972;SDS011;1496;51.404;7.232;2022-08-01T03:32:46;38.07;;;26.40;;
2972;SDS011;1496;51.404;7.232;2022-08-01T03:35:11;31.53;;;24.90;;
2972;SDS011;1496;51.404;7.232;2022-08-01T03:37:42;32.77;;;25.90;;
2972;SDS011;1496;51.404;7.232;2022-08-01T03:40:17;38.93;;;29.00;;
2972;SDS011;1496;51.404;7.232;2022-08-01T03:42:49;38.10;;;27.13;;
2972;SDS011;1496;51.404;7.232;2022-08-01T03:45:19;36.53;;;27.77;;
2972;SDS011;1496;51.404;7.232;2022-08-01T03:47:49;37.30;;;26.57;;
2972;SDS011;1496;51.404;7.232;2022-08-01T03:50:20;38.83;;;26.80;;
2972;SDS011;1496;51.404;7.232;2022-08-01T03:52:47;35.40;;;26.10;;
2972;SDS011;1496;51.404;7.232;2022-08-01T03:55:15;39.60;;;27.27;;
2972;SDS011;1496;51.404;7.232;2022-08-01T03:57:42;41.20;;;26.57;;
2972;SDS011;1496;51.404;7.232;2022-08-01T04:00:09;39.43;;;25.07;;
2972;SDS011;1496;51.404;7.232;2022-08-01T04:02:47;40.40;;;25.80;;
2972;SDS011;1496;51.404;7.232;2022-08-01T04:05:16;33.33;;;25.43;;
2972;SDS011;1496;51.404;7.232;2022-08-01T04:07:47;43.40;;;25.63;;
2972;SDS011;1496;51.404;7.232;2022-08-01T04:10:21;35.00;;;24.50;;
2972;SDS011;1496;51.404;7.232;2022-08-01T04:12:48;35.10;;;25.73;;
2972;SDS011;1496;51.404;7.232;2022-08-01T04:15:14;42.70;;;26.13;;
2972;SDS011;1496;51.404;7.232;2022-08-01T04:17:40;37.17;;;26.80;;
2972;SDS011;1496;51.404;7.232;2022-08-01T04:20:06;36.60;;;26.13;;
2972;SDS011;1496;51.404;7.232;2022-08-01T04:22:33;30.90;;;23.23;;
2972;SDS011;1496;51.404;7.232;2022-08-01T04:24:59;36.53;;;23.80;;
2972;SDS011;1496;51.404;7.232;2022-08-01T04:27:32;32.57;;;25.13;;
2972;SDS011;1496;51.404;7.232;2022-08-01T04:30:02;34.97;;;24.97;;
2972;SDS011;1496;51.404;7.232;2022-08-01T04:32:33;35.50;;;26.20;;
2972;SDS011;1496;51.404;7.232;2022-08-01T04:35:03;29.80;;;24.33;;
2972;SDS011;1496;51.404;7.232;2022-08-01T04:37:32;33.37;;;24.43;;
2972;SDS011;1496;51.404;7.232;2022-08-01T04:39:58;31.20;;;23.20;;
2972;SDS011;1496;51.404;7.232;2022-08-01T04:42:25;31.30;;;25.43;;
2972;SDS011;1496;51.404;7.232;2022-08-01T04:44:53;32.40;;;25.13;;
2972;SDS011;1496;51.404;7.232;2022-08-01T04:47:18;43.63;;;25.33;;
2972;SDS011;1496;51.404;7.232;2022-08-01T04:49:44;32.23;;;25.60;;
2972;SDS011;1496;51.404;7.232;2022-08-01T04:52:11;35.57;;;28.40;;
2972;SDS011;1496;51.404;7.232;2022-08-01T04:54:37;35.90;;;26.53;;
2972;SDS011;1496;51.404;7.232;2022-08-01T04:57:03;38.10;;;26.67;;
2972;SDS011;1496;51.404;7.232;2022-08-01T04:59:31;37.47;;;26.03;;
2972;SDS011;1496;51.404;7.232;2022-08-01T05:02:11;34.07;;;26.87;;
2972;SDS011;1496;51.404;7.232;2022-08-01T05:04:44;35.47;;;25.87;;
2972;SDS011;1496;51.404;7.232;2022-08-01T05:07:10;45.03;;;27.03;;
2972;SDS011;1496;51.404;7.232;2022-08-01T05:09:37;39.17;;;28.10;;
2972;SDS011;1496;51.404;7.232;2022-08-01T05:12:06;40.77;;;28.63;;
2972;SDS011;1496;51.404;7.232;2022-08-01T05:14:34;37.70;;;27.77;;
2972;SDS011;1496;51.404;7.232;2022-08-01T05:17:01;36.37;;;28.57;;
2972;SDS011;1496;51.404;7.232;2022-08-01T05:19:29;38.00;;;28.60;;
2972;SDS011;1496;51.404;7.232;2022-08-01T05:21:57;37.10;;;29.20;;
2972;SDS011;1496;51.404;7.232;2022-08-01T05:24:23;35.43;;;27.07;;
2972;SDS011;1496;51.404;7.232;2022-08-01T05:26:49;37.10;;;27.83;;
2972;SDS011;1496;51.404;7.232;2022-08-01T05:29:15;38.43;;;27.10;;
2972;SDS011;1496;51.404;7.232;2022-08-01T05:31:41;42.07;;;30.47;;
2972;SDS011;1496;51.404;7.232;2022-08-01T05:34:06;37.40;;;28.80;;
2972;SDS011;1496;51.404;7.232;2022-08-01T05:36:32;39.73;;;28.20;;
2972;SDS011;1496;51.404;7.232;2022-08-01T05:38:58;39.40;;;28.67;;
2972;SDS011;1496;51.404;7.232;2022-08-01T05:41:23;36.00;;;27.60;;
2972;SDS011;1496;51.404;7.232;2022-08-01T05:43:49;42.13;;;29.23;;
2972;SDS011;1496;51.404;7.232;2022-08-01T05:46:14;37.27;;;27.90;;
2972;SDS011;1496;51.404;7.232;2022-08-01T05:48:40;37.33;;;26.57;;
2972;SDS011;1496;51.404;7.232;2022-08-01T05:51:06;36.30;;;25.67;;
2972;SDS011;1496;51.404;7.232;2022-08-01T05:53:31;35.80;;;27.60;;
2972;SDS011;1496;51.404;7.232;2022-08-01T05:55:59;39.83;;;27.83;;
2972;SDS011;1496;51.404;7.232;2022-08-01T05:58:25;42.77;;;29.20;;
2972;SDS011;1496;51.404;7.232;2022-08-01T06:00:51;43.13;;;28.60;;
2972;SDS011;1496;51.404;7.232;2022-08-01T06:03:17;36.47;;;26.93;;
2972;SDS011;1496;51.404;7.232;2022-08-01T06:05:43;30.60;;;23.90;;
2972;SDS011;1496;51.404;7.232;2022-08-01T06:08:09;32.43;;;24.20;;
2972;SDS011;1496;51.404;7.232;2022-08-01T06:10:34;31.93;;;25.97;;
2972;SDS011;1496;51.404;7.232;2022-08-01T06:13:00;36.57;;;26.37;;
2972;SDS011;1496;51.404;7.232;2022-08-01T06:15:28;37.53;;;25.23;;
2972;SDS011;1496;51.404;7.232;2022-08-01T06:17:55;34.87;;;26.83;;
2972;SDS011;1496;51.404;7.232;2022-08-01T06:20:21;31.67;;;23.80;;
2972;SDS011;1496;51.404;7.232;2022-08-01T06:22:47;31.23;;;23.43;;
2972;SDS011;1496;51.404;7.232;2022-08-01T06:25:12;29.13;;;22.60;;
2972;SDS011;1496;51.404;7.232;2022-08-01T06:27:38;29.13;;;22.43;;
2972;SDS011;1496;51.404;7.232;2022-08-01T06:30:04;30.43;;;22.70;;
2972;SDS011;1496;51.404;7.232;2022-08-01T06:32:32;25.70;;;21.07;;
2972;SDS011;1496;51.404;7.232;2022-08-01T06:34:58;26.50;;;19.70;;
2972;SDS011;1496;51.404;7.232;2022-08-01T06:37:27;25.30;;;17.57;;
2972;SDS011;1496;51.404;7.232;2022-08-01T06:39:54;21.23;;;15.83;;
2972;SDS011;1496;51.404;7.232;2022-08-01T06:42:20;22.00;;;18.70;;
2972;SDS011;1496;51.404;7.232;2022-08-01T06:44:46;21.97;;;17.70;;
2972;SDS011;1496;51.404;7.232;2022-08-01T06:47:11;19.00;;;16.70;;
2972;SDS011;1496;51.404;7.232;2022-08-01T06:49:40;22.90;;;19.03;;
2972;SDS011;1496;51.404;7.232;2022-08-01T06:52:06;21.23;;;17.20;;
2972;SDS011;1496;51.404;7.232;2022-08-01T06:54:31;17.73;;;14.77;;
2972;SDS011;1496;51.404;7.232;2022-08-01T06:56:57;17.20;;;15.27;;
2972;SDS011;1496;51.404;7.232;2022-08-01T06:59:23;18.23;;;16.07;;
2972;SDS011;1496;51.404;7.232;2022-08-01T07:01:48;21.00;;;16.10;;
2972;SDS011;1496;51.404;7.232;2022-08-01T07:04:14;24.77;;;16.47;;
2972;SDS011;1496;51.404;7.232;2022-08-01T07:06:40;16.30;;;14.00;;
2972;SDS011;1496;51.404;7.232;2022-08-01T07:09:05;18.57;;;14.17;;
2972;SDS011;1496;51.404;7.232;2022-08-01T07:11:31;18.20;;;14.40;;
2972;SDS011;1496;51.404;7.232;2022-08-01T07:13:56;16.97;;;14.60;;
2972;SDS011;1496;51.404;7.232;2022-08-01T07:16:23;14.57;;;13.03;;
2972;SDS011;1496;51.404;7.232;2022-08-01T07:18:48;17.63;;;14.50;;
2972;SDS011;1496;51.404;7.232;2022-08-01T07:21:14;18.70;;;15.50;;
2972;SDS011;1496;51.404;7.232;2022-08-01T07:23:40;17.73;;;13.47;;
2972;SDS011;1496;51.404;7.232;2022-08-01T07:26:05;18.20;;;14.20;;
2972;SDS011;1496;51.404;7.232;2022-08-01T07:28:32;16.77;;;13.83;;
2972;SDS011;1496;51.404;7.232;2022-08-01T07:30:57;16.10;;;13.27;;
2972;SDS011;1496;51.404;7.232;2022-08-01T07:33:23;23.83;;;15.90;;
2972;SDS011;1496;51.404;7.232;2022-08-01T07:35:49;16.70;;;13.27;;
2972;SDS011;1496;51.404;7.232;2022-08-01T07:38:14;16.00;;;13.73;;
2972;SDS011;1496;51.404;7.232;2022-08-01T07:40:42;16.50;;;14.43;;
2972;SDS011;1496;51.404;7.232;2022-08-01T07:43:08;16.47;;;13.33;;
2972;SDS011;1496;51.404;7.232;2022-08-01T07:45:34;18.60;;;14.00;;
2972;SDS011;1496;51.404;7.232;2022-08-01T07:48:04;14.73;;;12.27;;
2972;SDS011;1496;51.404;7.232;2022-08-01T07:50:31;17.20;;;13.10;;
2972;SDS011;1496;51.404;7.232;2022-08-01T07:52:57;15.90;;;11.43;;
2972;SDS011;1496;51.404;7.232;2022-08-01T07:55:23;12.60;;;10.57;;
2972;SDS011;1496;51.404;7.232;2022-08-01T07:57:49;14.10;;;11.17;;
2972;SDS011;1496;51.404;7.232;2022-08-01T08:00:14;15.23;;;10.67;;
2972;SDS011;1496;51.404;7.232;2022-08-01T08:02:40;13.93;;;11.20;;
2972;SDS011;1496;51.404;7.232;2022-08-01T08:05:07;12.43;;;9.50;;
2972;SDS011;1496;51.404;7.232;2022-08-01T08:07:33;10.67;;;9.57;;
2972;SDS011;1496;51.404;7.232;2022-08-01T08:09:58;12.13;;;10.37;;
2972;SDS011;1496;51.404;7.232;2022-08-01T08:12:24;19.30;;;10.80;;
2972;SDS011;1496;51.404;7.232;2022-08-01T08:14:50;12.70;;;10.33;;
2972;SDS011;1496;51.404;7.232;2022-08-01T08:17:16;11.57;;;9.27;;
2972;SDS011;1496;51.404;7.232;2022-08-01T08:19:41;11.30;;;8.53;;
2972;SDS011;1496;51.404;7.232;2022-08-01T08:22:07;10.10;;;9.10;;
2972;SDS011;1496;51.404;7.232;2022-08-01T08:24:34;10.67;;;9.67;;
2972;SDS011;1496;51.404;7.232;2022-08-01T08:27:00;8.33;;;7.43;;
2972;SDS011;1496;51.404;7.232;2022-08-01T08:29:27;14.43;;;9.07;;
2972;SDS011;1496;51.404;7.232;2022-08-01T08:31:55;12.73;;;8.87;;
2972;SDS011;1496;51.404;7.232;2022-08-01T08:34:22;11.20;;;10.03;;
2972;SDS011;1496;51.404;7.232;2022-08-01T08:36:49;9.70;;;8.70;;
2972;SDS011;1496;51.404;7.232;2022-08-01T08:39:15;8.50;;;7.20;;
2972;SDS011;1496;51.404;7.232;2022-08-01T08:41:41;9.87;;;8.80;;
2972;SDS011;1496;51.404;7.232;2022-08-01T08:44:07;11.33;;;8.93;;
2972;SDS011;1496;51.404;7.232;2022-08-01T08:46:35;10.10;;;9.10;;
2972;SDS011;1496;51.404;7.232;2022-08-01T08:49:09;14.13;;;9.50;;
2972;SDS011;1496;51.404;7.232;2022-08-01T08:51:39;11.07;;;9.57;;
2972;SDS011;1496;51.404;7.232;2022-08-01T08:54:07;11.17;;;10.03;;
2972;SDS011;1496;51.404;7.232;2022-08-01T08:56:36;12.60;;;10.27;;
2972;SDS011;1496;51.404;7.232;2022-08-01T08:59:03;11.90;;;10.90;;
2972;SDS011;1496;51.404;7.232;2022-08-01T09:01:30;12.80;;;10.97;;
2972;SDS011;1496;51.404;7.232;2022-08-01T09:03:57;12.27;;;11.17;;
2972;SDS011;1496;51.404;7.232;2022-08-01T09:06:23;14.10;;;11.17;;
2972;SDS011;1496;51.404;7.232;2022-08-01T09:08:49;14.73;;;11.10;;
2972;SDS011;1496;51.404;7.232;2022-08-01T09:11:15;12.67;;;11.47;;
2972;SDS011;1496;51.404;7.232;2022-08-01T09:13:41;12.73;;;9.67;;
2972;SDS011;1496;51.404;7.232;2022-08-01T09:16:25;11.13;;;9.23;;
2972;SDS011;1496;51.404;7.232;2022-08-01T09:18:51;16.77;;;9.77;;
2972;SDS011;1496;51.404;7.232;2022-08-01T09:21:20;12.00;;;8.90;;
2972;SDS011;1496;51.404;7.232;2022-08-01T09:23:50;9.83;;;8.33;;
2972;SDS011;1496;51.404;7.232;2022-08-01T09:26:18;9.83;;;8.07;;
2972;SDS011;1496;51.404;7.232;2022-08-01T09:28:46;10.80;;;8.13;;
2972;SDS011;1496;51.404;7.232;2022-08-01T09:31:13;10.50;;;7.43;;
2972;SDS011;1496;51.404;7.232;2022-08-01T09:33:59;8.80;;;6.23;;
2972;SDS011;1496;51.404;7.232;2022-08-01T09:36:51;12.00;;;9.50;;
2972;SDS011;1496;51.404;7.232;2022-08-01T09:39:32;9.57;;;7.40;;
2972;SDS011;1496;51.404;7.232;2022-08-01T09:42:18;21.73;;;7.60;;
2972;SDS011;1496;51.404;7.232;2022-08-01T09:44:44;25.03;;;8.03;;
2972;SDS011;1496;51.404;7.232;2022-08-01T09:47:15;24.33;;;7.07;;
2972;SDS011;1496;51.404;7.232;2022-08-01T09:49:45;24.20;;;7.80;;
2972;SDS011;1496;51.404;7.232;2022-08-01T09:52:22;23.87;;;8.67;;
2972;SDS011;1496;51.404;7.232;2022-08-01T09:54:59;21.40;;;7.77;;
2972;SDS011;1496;51.404;7.232;2022-08-01T09:57:29;20.03;;;5.93;;
2972;SDS011;1496;51.404;7.232;2022-08-01T09:59:56;23.50;;;6.00;;
2972;SDS011;1496;51.404;7.232;2022-08-01T10:02:56;19.53;;;6.57;;
2972;SDS011;1496;51.404;7.232;2022-08-01T10:05:15;14.60;;;6.40;;
2972;SDS011;1496;51.404;7.232;2022-08-01T10:07:57;17.30;;;6.40;;
2972;SDS011;1496;51.404;7.232;2022-08-01T10:10:24;16.87;;;6.33;;
2972;SDS011;1496;51.404;7.232;2022-08-01T10:12:51;11.47;;;6.70;;
2972;SDS011;1496;51.404;7.232;2022-08-01T10:15:17;9.17;;;5.80;;
2972;SDS011;1496;51.404;7.232;2022-08-01T10:20:18;9.50;;;6.00;;
2972;SDS011;1496;51.404;7.232;2022-08-01T10:22:45;10.47;;;5.57;;
2972;SDS011;1496;51.404;7.232;2022-08-01T10:25:12;10.33;;;6.27;;
2972;SDS011;1496;51.404;7.232;2022-08-01T10:27:43;6.57;;;5.20;;
2972;SDS011;1496;51.404;7.232;2022-08-01T10:30:10;4.03;;;3.63;;
2972;SDS011;1496;51.404;7.232;2022-08-01T10:32:36;4.63;;;4.23;;
2972;SDS011;1496;51.404;7.232;2022-08-01T10:35:05;4.50;;;4.10;;
2972;SDS011;1496;51.404;7.232;2022-08-01T10:37:35;4.20;;;3.80;;
2972;SDS011;1496;51.404;7.232;2022-08-01T10:40:01;4.63;;;4.23;;
2972;SDS011;1496;51.404;7.232;2022-08-01T10:42:27;4.23;;;3.83;;
2972;SDS011;1496;51.404;7.232;2022-08-01T10:44:54;3.87;;;3.57;;
2972;SDS011;1496;51.404;7.232;2022-08-01T10:47:22;5.10;;;4.23;;
2972;SDS011;1496;51.404;7.232;2022-08-01T10:50:02;4.00;;;3.10;;
2972;SDS011;1496;51.404;7.232;2022-08-01T10:55:57;4.40;;;4.00;;
2972;SDS011;1496;51.404;7.232;2022-08-01T10:58:33;5.37;;;4.00;;
2972;SDS011;1496;51.404;7.232;2022-08-01T11:06:28;3.90;;;2.80;;
2972;SDS011;1496;51.404;7.232;2022-08-01T11:14:25;3.03;;;2.77;;
2972;SDS011;1496;51.404;7.232;2022-08-01T11:16:51;2.87;;;2.07;;
2972;SDS011;1496;51.404;7.232;2022-08-01T11:19:17;2.47;;;1.73;;
2972;SDS011;1496;51.404;7.232;2022-08-01T11:25:03;1.93;;;1.33;;
2972;SDS011;1496;51.404;7.232;2022-08-01T11:30:29;2.00;;;1.50;;
2972;SDS011;1496;51.404;7.232;2022-08-01T11:32:56;1.90;;;1.70;;
2972;SDS011;1496;51.404;7.232;2022-08-01T11:35:23;1.70;;;1.30;;
2972;SDS011;1496;51.404;7.232;2022-08-01T11:37:52;5.20;;;1.80;;
2972;SDS011;1496;51.404;7.232;2022-08-01T11:45:51;3.10;;;1.37;;
2972;SDS011;1496;51.404;7.232;2022-08-01T11:48:21;2.10;;;1.87;;
2972;SDS011;1496;51.404;7.232;2022-08-01T11:50:49;2.60;;;2.30;;
2972;SDS011;1496;51.404;7.232;2022-08-01T11:53:15;3.27;;;2.67;;
2972;SDS011;1496;51.404;7.232;2022-08-01T11:55:47;2.60;;;2.40;;
2972;SDS011;1496;51.404;7.232;2022-08-01T11:58:15;1.80;;;1.40;;
2972;SDS011;1496;51.404;7.232;2022-08-01T12:00:51;1.50;;;0.90;;
2972;SDS011;1496;51.404;7.232;2022-08-01T12:03:25;1.90;;;1.00;;
2972;SDS011;1496;51.404;7.232;2022-08-01T12:05:55;1.33;;;0.97;;
2972;SDS011;1496;51.404;7.232;2022-08-01T12:08:28;2.17;;;1.20;;
2972;SDS011;1496;51.404;7.232;2022-08-01T12:10:59;2.30;;;1.27;;
2972;SDS011;1496;51.404;7.232;2022-08-01T12:13:26;4.90;;;1.10;;
2972;SDS011;1496;51.404;7.232;2022-08-01T12:15:51;4.80;;;1.20;;
2972;SDS011;1496;51.404;7.232;2022-08-01T12:18:17;5.00;;;1.43;;
2972;SDS011;1496;51.404;7.232;2022-08-01T12:20:44;1.90;;;1.43;;
2972;SDS011;1496;51.404;7.232;2022-08-01T12:23:11;1.80;;;1.60;;
2972;SDS011;1496;51.404;7.232;2022-08-01T12:25:38;2.13;;;1.23;;
2972;SDS011;1496;51.404;7.232;2022-08-01T12:28:06;2.13;;;1.57;;
2972;SDS011;1496;51.404;7.232;2022-08-01T12:30:34;2.30;;;2.10;;
2972;SDS011;1496;51.404;7.232;2022-08-01T12:33:01;2.23;;;1.80;;
2972;SDS011;1496;51.404;7.232;2022-08-01T12:35:29;1.77;;;1.27;;
2972;SDS011;1496;51.404;7.232;2022-08-01T12:37:59;4.33;;;2.03;;
2972;SDS011;1496;51.404;7.232;2022-08-01T12:40:30;3.10;;;2.07;;
2972;SDS011;1496;51.404;7.232;2022-08-01T12:43:00;2.27;;;1.87;;
2972;SDS011;1496;51.404;7.232;2022-08-01T12:47:59;1.73;;;1.33;;
2972;SDS011;1496;51.404;7.232;2022-08-01T12:50:27;1.83;;;1.50;;
2972;SDS011;1496;51.404;7.232;2022-08-01T12:52:55;2.10;;;1.57;;
2972;SDS011;1496;51.404;7.232;2022-08-01T12:55:26;1.67;;;1.40;;
2972;SDS011;1496;51.404;7.232;2022-08-01T13:00:37;3.67;;;1.43;;
2972;SDS011;1496;51.404;7.232;2022-08-01T13:03:06;2.20;;;1.10;;
2972;SDS011;1496;51.404;7.232;2022-08-01T13:08:24;1.90;;;1.57;;
2972;SDS011;1496;51.404;7.232;2022-08-01T13:11:19;3.67;;;1.57;;
2972;SDS011;1496;51.404;7.232;2022-08-01T13:13:45;2.00;;;1.80;;
2972;SDS011;1496;51.404;7.232;2022-08-01T13:16:19;2.07;;;1.87;;
2972;SDS011;1496;51.404;7.232;2022-08-01T13:18:53;2.53;;;2.07;;
2972;SDS011;1496;51.404;7.232;2022-08-01T13:21:21;1.90;;;1.63;;
2972;SDS011;1496;51.404;7.232;2022-08-01T13:24:05;3.97;;;1.53;;
2972;SDS011;1496;51.404;7.232;2022-08-01T13:26:44;1.60;;;1.10;;
2972;SDS011;1496;51.404;7.232;2022-08-01T13:29:10;2.87;;;1.20;;
2972;SDS011;1496;51.404;7.232;2022-08-01T13:31:38;5.03;;;1.10;;
2972;SDS011;1496;51.404;7.232;2022-08-01T13:34:04;1.90;;;1.30;;
2972;SDS011;1496;51.404;7.232;2022-08-01T13:36:30;5.30;;;2.03;;
2972;SDS011;1496;51.404;7.232;2022-08-01T13:38:57;3.80;;;2.90;;
2972;SDS011;1496;51.404;7.232;2022-08-01T13:41:41;2.40;;;2.13;;
2972;SDS011;1496;51.404;7.232;2022-08-01T13:44:08;5.00;;;1.53;;
2972;SDS011;1496;51.404;7.232;2022-08-01T13:46:36;1.70;;;1.30;;
2972;SDS011;1496;51.404;7.232;2022-08-01T13:49:02;1.60;;;1.23;;
2972;SDS011;1496;51.404;7.232;2022-08-01T13:51:28;1.70;;;1.40;;
2972;SDS011;1496;51.404;7.232;2022-08-01T13:53:54;2.60;;;1.30;;
2972;SDS011;1496;51.404;7.232;2022-08-01T13:56:20;1.30;;;1.00;;
2972;SDS011;1496;51.404;7.232;2022-08-01T13:58:45;1.80;;;1.30;;
2972;SDS011;1496;51.404;7.232;2022-08-01T14:01:11;1.40;;;1.00;;
2972;SDS011;1496;51.404;7.232;2022-08-01T14:03:37;2.00;;;1.57;;
2972;SDS011;1496;51.404;7.232;2022-08-01T14:06:03;2.90;;;1.50;;
2972;SDS011;1496;51.404;7.232;2022-08-01T14:08:32;1.77;;;1.30;;
2972;SDS011;1496;51.404;7.232;2022-08-01T14:10:58;2.10;;;1.30;;
2972;SDS011;1496;51.404;7.232;2022-08-01T14:13:24;1.60;;;1.43;;
2972;SDS011;1496;51.404;7.232;2022-08-01T14:15:51;2.00;;;1.57;;
2972;SDS011;1496;51.404;7.232;2022-08-01T14:18:17;2.00;;;1.77;;
2972;SDS011;1496;51.404;7.232;2022-08-01T14:20:43;2.93;;;1.50;;
2972;SDS011;1496;51.404;7.232;2022-08-01T14:23:09;2.63;;;1.80;;
2972;SDS011;1496;51.404;7.232;2022-08-01T14:25:36;1.87;;;1.67;;
2972;SDS011;1496;51.404;7.232;2022-08-01T14:28:02;1.70;;;1.50;;
2972;SDS011;1496;51.404;7.232;2022-08-01T14:30:28;2.90;;;1.70;;
2972;SDS011;1496;51.404;7.232;2022-08-01T14:32:54;1.80;;;1.70;;
2972;SDS011;1496;51.404;7.232;2022-08-01T14:35:21;2.23;;;1.70;;
2972;SDS011;1496;51.404;7.232;2022-08-01T14:37:47;2.00;;;1.80;;
2972;SDS011;1496;51.404;7.232;2022-08-01T14:40:12;1.60;;;1.37;;
2972;SDS011;1496;51.404;7.232;2022-08-01T14:42:38;2.63;;;1.80;;
2972;SDS011;1496;51.404;7.232;2022-08-01T14:45:05;1.83;;;1.50;;
2972;SDS011;1496;51.404;7.232;2022-08-01T14:47:42;2.90;;;1.90;;
2972;SDS011;1496;51.404;7.232;2022-08-01T14:50:09;2.30;;;1.87;;
2972;SDS011;1496;51.404;7.232;2022-08-01T14:52:38;2.20;;;2.00;;
2972;SDS011;1496;51.404;7.232;2022-08-01T14:55:08;2.80;;;2.07;;
2972;SDS011;1496;51.404;7.232;2022-08-01T14:57:35;2.10;;;1.70;;
2972;SDS011;1496;51.404;7.232;2022-08-01T15:00:01;2.43;;;2.07;;
2972;SDS011;1496;51.404;7.232;2022-08-01T15:02:28;1.93;;;1.83;;
2972;SDS011;1496;51.404;7.232;2022-08-01T15:04:54;1.90;;;1.47;;
2972;SDS011;1496;51.404;7.232;2022-08-01T15:07:20;1.47;;;1.37;;
2972;SDS011;1496;51.404;7.232;2022-08-01T15:09:46;2.60;;;1.50;;
2972;SDS011;1496;51.404;7.232;2022-08-01T15:12:11;1.90;;;1.60;;
2972;SDS011;1496;51.404;7.232;2022-08-01T15:14:37;4.10;;;2.00;;
2972;SDS011;1496;51.404;7.232;2022-08-01T15:17:19;1.60;;;1.40;;
2972;SDS011;1496;51.404;7.232;2022-08-01T15:19:50;2.73;;;1.50;;
2972;SDS011;1496;51.404;7.232;2022-08-01T15:22:18;2.00;;;1.77;;
2972;SDS011;1496;51.404;7.232;2022-08-01T15:24:46;2.57;;;1.47;;
2972;SDS011;1496;51.404;7.232;2022-08-01T15:27:16;2.27;;;1.53;;
2972;SDS011;1496;51.404;7.232;2022-08-01T15:29:42;4.03;;;1.73;;
2972;SDS011;1496;51.404;7.232;2022-08-01T15:32:08;3.30;;;2.10;;
2972;SDS011;1496;51.404;7.232;2022-08-01T15:34:37;3.23;;;1.73;;
2972;SDS011;1496;51.404;7.232;2022-08-01T15:37:04;1.90;;;1.70;;
2972;SDS011;1496;51.404;7.232;2022-08-01T15:39:30;2.00;;;1.80;;
2972;SDS011;1496;51.404;7.232;2022-08-01T15:41:58;2.33;;;1.90;;
2972;SDS011;1496;51.404;7.232;2022-08-01T15:44:25;3.20;;;1.70;;
2972;SDS011;1496;51.404;7.232;2022-08-01T15:46:50;3.93;;;1.73;;
2972;SDS011;1496;51.404;7.232;2022-08-01T15:49:16;2.93;;;1.97;;